createdAt,value
2023-02-14T00:01:53.576Z,7.03
2023-02-14T00:04:21.929Z,7.04
2023-02-14T00:06:53.008Z,7.06
2023-02-14T00:09:22.092Z,7.07
2023-02-14T00:11:53.237Z,7.05
2023-02-14T00:14:40.888Z,7.04
2023-02-14T00:17:09.345Z,7.04
2023-02-14T00:19:38.232Z,7.04
2023-02-14T00:22:06.918Z,7.05
2023-02-14T00:24:35.224Z,7.06
2023-02-14T00:27:04.092Z,7.07
2023-02-14T00:29:32.876Z,7.05
2023-02-14T00:32:03.299Z,7.04
2023-02-14T00:34:33.721Z,7.02
2023-02-14T00:37:03.274Z,7.01
2023-02-14T00:39:32.428Z,7.03
2023-02-14T00:42:01.621Z,7.04
2023-02-14T00:44:30.306Z,7.05
2023-02-14T00:46:59.518Z,7.03
2023-02-14T00:49:28.130Z,7.02
2023-02-14T00:51:56.874Z,7.01
2023-02-14T00:54:25.764Z,7.00
2023-02-14T00:56:54.354Z,7.01
2023-02-14T00:59:22.753Z,7.03
2023-02-14T01:01:51.214Z,7.11
2023-02-14T01:04:19.892Z,7.15
2023-02-14T01:06:48.787Z,7.15
2023-02-14T01:09:17.164Z,7.13
2023-02-14T01:11:46.769Z,7.12
2023-02-14T01:14:16.477Z,7.12
2023-02-14T01:16:45.446Z,7.12
2023-02-14T01:19:14.460Z,7.12
2023-02-14T01:21:45.396Z,7.12
2023-02-14T01:24:14.286Z,7.12
2023-02-14T01:26:44.922Z,7.12
2023-02-14T01:29:13.410Z,7.13
2023-02-14T01:31:42.690Z,7.14
2023-02-14T01:34:11.077Z,7.14
2023-02-14T01:36:41.201Z,7.13
2023-02-14T01:39:16.434Z,7.10
2023-02-14T01:41:50.343Z,7.07
2023-02-14T01:44:18.722Z,7.03
2023-02-14T01:46:47.321Z,7.01
2023-02-14T01:49:18.956Z,7.01
2023-02-14T01:51:59.325Z,7.02
2023-02-14T01:54:27.697Z,7.00
2023-02-14T01:56:58.858Z,6.98
2023-02-14T01:59:29.168Z,6.95
2023-02-14T02:01:57.587Z,6.91
2023-02-14T02:04:28.396Z,6.87
2023-02-14T02:07:03.524Z,6.85
2023-02-14T02:09:44.191Z,6.86
2023-02-14T02:12:12.673Z,6.85
2023-02-14T02:14:46.467Z,6.85
2023-02-14T02:17:50.480Z,6.83
2023-02-14T02:20:45.381Z,6.80
2023-02-14T02:23:33.631Z,6.77
2023-02-14T02:26:31.713Z,6.76
2023-02-14T02:29:11.652Z,6.78
2023-02-14T02:31:52.935Z,6.80
2023-02-14T02:34:27.140Z,6.83
2023-02-14T02:37:07.835Z,6.85
2023-02-14T02:39:36.229Z,6.85
2023-02-14T02:42:42.148Z,6.84
2023-02-14T02:45:16.489Z,6.82
2023-02-14T02:48:08.925Z,6.81
2023-02-14T02:51:04.148Z,6.83
2023-02-14T02:53:43.039Z,6.86
2023-02-14T02:56:36.609Z,6.88
2023-02-14T02:59:21.000Z,6.88
2023-02-14T03:02:26.918Z,6.87
2023-02-14T03:04:56.457Z,6.85
2023-02-14T03:07:39.609Z,6.81
2023-02-14T03:10:14.067Z,6.79
2023-02-14T03:13:02.005Z,6.78
2023-02-14T03:15:50.624Z,6.80
2023-02-14T03:18:50.897Z,6.82
2023-02-14T03:21:20.214Z,6.84
2023-02-14T03:23:53.481Z,6.83
2023-02-14T03:26:30.964Z,6.81
2023-02-14T03:29:13.326Z,6.79
2023-02-14T03:32:34.387Z,6.75
2023-02-14T03:35:15.384Z,6.71
2023-02-14T03:38:12.319Z,6.70
2023-02-14T03:44:05.393Z,6.79
2023-02-14T03:46:45.380Z,6.79
2023-02-14T03:49:16.381Z,6.81
2023-02-14T03:51:45.470Z,6.81
2023-02-14T03:54:13.765Z,6.81
2023-02-14T03:56:46.529Z,6.78
2023-02-14T03:59:17.336Z,6.75
2023-02-14T04:02:07.553Z,6.73
2023-02-14T04:04:38.276Z,6.72
2023-02-14T04:07:11.477Z,6.73
2023-02-14T04:09:40.187Z,6.76
2023-02-14T04:12:10.990Z,6.80
2023-02-14T04:14:39.678Z,6.82
2023-02-14T04:17:27.315Z,6.82
2023-02-14T04:19:56.098Z,6.82
2023-02-14T04:22:24.299Z,6.80
2023-02-14T04:24:52.846Z,6.77
2023-02-14T04:27:21.333Z,6.74
2023-02-14T04:29:51.147Z,6.72
2023-02-14T04:32:21.827Z,6.71
2023-02-14T04:34:51.171Z,6.71
2023-02-14T04:37:19.796Z,6.72
2023-02-14T04:39:48.539Z,6.73
2023-02-14T04:42:17.027Z,6.75
2023-02-14T04:44:45.711Z,6.76
2023-02-14T04:47:14.189Z,6.74
2023-02-14T04:49:43.181Z,6.73
2023-02-14T04:52:13.502Z,6.71
2023-02-14T04:54:44.033Z,6.69
2023-02-14T04:57:12.728Z,6.68
2023-02-14T04:59:41.934Z,6.68
2023-02-14T05:02:10.979Z,6.72
2023-02-14T05:04:39.696Z,6.76
2023-02-14T05:07:08.279Z,6.79
2023-02-14T05:09:42.098Z,6.81
2023-02-14T05:12:10.378Z,6.81
2023-02-14T05:14:38.833Z,6.80
2023-02-14T05:17:07.623Z,6.79
2023-02-14T05:19:36.414Z,6.79
2023-02-14T05:22:05.107Z,6.81
2023-02-14T05:24:33.500Z,6.84
2023-02-14T05:27:02.060Z,6.88
2023-02-14T05:29:30.739Z,6.90
2023-02-14T05:31:59.221Z,6.91
2023-02-14T05:34:28.211Z,6.91
2023-02-14T05:36:57.849Z,6.90
2023-02-14T05:39:26.412Z,6.91
2023-02-14T05:41:58.491Z,6.92
2023-02-14T05:44:28.277Z,6.96
2023-02-14T05:46:57.683Z,6.99
2023-02-14T05:49:26.061Z,7.02
2023-02-14T05:51:55.769Z,7.03
2023-02-14T05:54:24.670Z,7.05
2023-02-14T05:56:53.145Z,7.05
2023-02-14T05:59:21.827Z,7.05
2023-02-14T06:01:50.427Z,7.05
2023-02-14T06:04:19.152Z,7.07
2023-02-14T06:06:47.475Z,7.10
2023-02-14T06:09:16.060Z,7.13
2023-02-14T06:11:44.447Z,7.16
2023-02-14T06:14:13.639Z,7.18
2023-02-14T06:16:42.084Z,7.17
2023-02-14T06:19:13.492Z,7.17
2023-02-14T06:21:41.844Z,7.17
2023-02-14T06:24:10.219Z,7.17
2023-02-14T06:26:40.472Z,7.18
2023-02-14T06:29:09.025Z,7.22
2023-02-14T06:31:37.708Z,7.25
2023-02-14T06:34:06.086Z,7.28
2023-02-14T06:36:35.793Z,7.30
2023-02-14T06:39:04.683Z,7.32
2023-02-14T06:41:33.398Z,7.33
2023-02-14T06:44:01.750Z,7.35
2023-02-14T06:46:30.449Z,7.37
2023-02-14T06:48:59.020Z,7.41
2023-02-14T06:51:27.823Z,7.45
2023-02-14T06:53:56.181Z,7.47
2023-02-14T06:56:24.560Z,7.50
2023-02-14T06:58:53.081Z,7.50
2023-02-14T07:01:21.757Z,7.51
2023-02-14T07:03:50.308Z,7.52
2023-02-14T07:06:18.994Z,7.56
2023-02-14T07:08:47.780Z,7.60
2023-02-14T07:11:16.572Z,7.64
2023-02-14T07:13:47.134Z,7.67
2023-02-14T07:16:17.590Z,7.68
2023-02-14T07:18:45.902Z,7.70
2023-02-14T07:21:16.025Z,7.71
2023-02-14T07:23:47.982Z,7.73
2023-02-14T07:26:18.511Z,7.77
2023-02-14T07:28:49.355Z,7.83
2023-02-14T07:31:18.760Z,7.89
2023-02-14T07:33:48.044Z,7.93
2023-02-14T07:36:16.629Z,7.96
2023-02-14T07:38:45.516Z,7.98
2023-02-14T07:41:14.101Z,7.99
2023-02-14T07:43:42.383Z,8.00
2023-02-14T07:46:10.677Z,8.03
2023-02-14T07:48:40.582Z,8.05
2023-02-14T07:55:16.559Z,8.11
2023-02-14T07:57:43.499Z,8.12
2023-02-14T08:00:11.054Z,8.12
2023-02-14T08:02:41.377Z,8.11
2023-02-14T08:05:08.545Z,8.11
2023-02-14T08:07:36.389Z,8.12
2023-02-14T08:10:03.640Z,8.13
2023-02-14T08:12:54.647Z,8.13
2023-02-14T08:15:41.222Z,8.14
2023-02-14T08:18:12.601Z,8.16
2023-02-14T08:20:40.258Z,8.18
2023-02-14T08:23:11.610Z,8.21
2023-02-14T08:25:39.297Z,8.26
2023-02-14T08:28:07.476Z,8.32
2023-02-14T08:30:37.781Z,8.36
2023-02-14T08:33:05.437Z,8.40
2023-02-14T08:35:33.601Z,8.42
2023-02-14T08:38:00.542Z,8.44
2023-02-14T08:40:27.996Z,8.46
2023-02-14T08:42:55.555Z,8.49
2023-02-14T08:45:23.346Z,8.53
2023-02-14T08:47:50.470Z,8.57
2023-02-14T08:50:17.826Z,8.63
2023-02-14T08:52:44.873Z,8.66
2023-02-14T08:55:13.464Z,8.67
2023-02-14T08:57:42.549Z,8.69
2023-02-14T09:00:10.215Z,8.70
2023-02-14T09:02:39.339Z,8.72
2023-02-14T09:05:08.847Z,8.75
2023-02-14T09:07:36.401Z,8.76
2023-02-14T09:10:09.988Z,8.75
2023-02-14T09:12:41.158Z,8.75
2023-02-14T09:15:09.082Z,8.72
2023-02-14T09:17:36.950Z,8.69
2023-02-14T09:20:06.376Z,8.65
2023-02-14T09:22:36.361Z,8.68
2023-02-14T09:25:04.842Z,8.72
2023-02-14T09:27:32.516Z,8.74
2023-02-14T09:30:00.094Z,8.77
2023-02-14T09:32:28.806Z,8.79
2023-02-14T09:35:14.550Z,8.82
2023-02-14T09:38:00.014Z,8.83
2023-02-14T09:40:27.058Z,8.84
2023-02-14T09:43:29.844Z,8.83
2023-02-14T09:45:57.528Z,8.87
2023-02-14T09:48:32.914Z,8.90
2023-02-14T09:51:08.194Z,8.96
2023-02-14T09:53:40.496Z,9.02
2023-02-14T09:56:50.548Z,9.03
2023-02-14T09:59:46.441Z,8.96
2023-02-14T10:02:40.458Z,8.90
2023-02-14T10:05:28.673Z,8.90
2023-02-14T10:07:55.918Z,8.90
2023-02-14T10:10:41.195Z,8.89
2023-02-14T10:13:31.478Z,8.90
2023-02-14T10:16:18.002Z,8.89
2023-02-14T10:19:03.675Z,8.92
2023-02-14T10:21:56.311Z,8.93
2023-02-14T10:24:38.412Z,8.90
2023-02-14T10:27:29.006Z,8.86
2023-02-14T10:29:56.194Z,8.88
2023-02-14T10:32:37.753Z,8.87
2023-02-14T10:35:11.242Z,8.83
2023-02-14T10:38:03.484Z,8.79
2023-02-14T10:41:01.992Z,8.76
2023-02-14T10:43:38.544Z,8.75
2023-02-14T10:46:45.311Z,8.75
2023-02-14T10:49:35.369Z,8.76
2023-02-14T10:52:43.123Z,8.74
2023-02-14T10:55:42.617Z,8.72
2023-02-14T10:58:13.342Z,8.73
2023-02-14T11:00:51.588Z,8.72
2023-02-14T11:03:18.920Z,8.72
2023-02-14T11:05:49.450Z,8.73
2023-02-14T11:08:22.624Z,8.73
2023-02-14T11:10:51.103Z,8.72
2023-02-14T11:13:48.056Z,8.70
2023-02-14T11:16:29.564Z,8.66
2023-02-14T11:19:34.963Z,8.64
2023-02-14T11:22:04.289Z,8.65
2023-02-14T11:24:32.539Z,8.63
2023-02-14T11:27:04.425Z,8.61
2023-02-14T11:29:38.953Z,8.58
2023-02-14T11:32:10.507Z,8.59
2023-02-14T11:34:59.452Z,8.60
2023-02-14T11:38:42.376Z,8.62
2023-02-14T11:41:11.292Z,8.61
2023-02-14T11:43:42.321Z,8.59
2023-02-14T11:46:23.671Z,8.60
2023-02-14T11:48:58.419Z,8.60
2023-02-14T11:51:27.850Z,8.64
2023-02-14T11:53:56.617Z,8.67
2023-02-14T11:56:23.776Z,8.72
2023-02-14T11:58:55.420Z,8.79
2023-02-14T12:04:55.156Z,8.83
2023-02-14T12:07:26.864Z,8.77
2023-02-14T12:10:11.765Z,8.72
2023-02-14T12:12:56.549Z,8.67
2023-02-14T12:15:30.805Z,8.62
2023-02-14T12:18:21.036Z,8.59
2023-02-14T12:20:59.195Z,8.56
2023-02-14T12:23:35.608Z,8.54
2023-02-14T12:26:10.029Z,8.50
2023-02-14T12:28:48.032Z,8.47
2023-02-14T12:31:16.555Z,8.44
2023-02-14T12:33:47.126Z,8.40
2023-02-14T12:36:20.226Z,8.35
2023-02-14T12:39:01.558Z,8.30
2023-02-14T12:45:23.445Z,8.31
2023-02-14T12:48:06.904Z,8.30
2023-02-14T12:51:03.364Z,8.33
2023-02-14T12:53:48.798Z,8.38
2023-02-14T12:56:47.092Z,8.43
2023-02-14T12:59:34.306Z,8.45
2023-02-14T13:02:11.339Z,8.52
2023-02-14T13:04:58.209Z,8.59
2023-02-14T13:07:41.956Z,8.66
2023-02-14T13:10:16.769Z,8.69
2023-02-14T13:13:17.914Z,8.71
2023-02-14T13:15:55.355Z,8.74
2023-02-14T13:18:34.330Z,8.77
2023-02-14T13:21:04.470Z,8.79
2023-02-14T13:23:41.164Z,8.78
2023-02-14T13:26:18.098Z,8.79
2023-02-14T13:28:52.271Z,8.82
2023-02-14T13:31:21.021Z,8.85
2023-02-14T13:33:52.691Z,8.88
2023-02-14T13:36:21.349Z,8.90
2023-02-14T13:38:51.902Z,8.89
2023-02-14T13:41:20.472Z,8.89
2023-02-14T13:44:01.701Z,8.89
2023-02-14T13:46:30.464Z,8.88
2023-02-14T13:49:03.708Z,8.88
2023-02-14T13:52:04.005Z,8.88
2023-02-14T13:54:45.124Z,8.88
2023-02-14T13:57:31.703Z,8.90
2023-02-14T14:00:21.523Z,8.90
2023-02-14T14:02:59.392Z,8.87
2023-02-14T14:05:32.797Z,8.82
2023-02-14T14:08:23.697Z,8.79
2023-02-14T14:11:03.781Z,8.73
2023-02-14T14:13:41.355Z,8.68
2023-02-14T14:16:28.796Z,8.63
2023-02-14T14:18:57.467Z,8.56
2023-02-14T14:21:28.595Z,8.53
2023-02-14T14:24:24.636Z,8.51
2023-02-14T14:27:12.362Z,8.49
2023-02-14T14:29:44.528Z,8.49
2023-02-14T14:32:27.441Z,8.50
2023-02-14T14:35:20.503Z,8.50
2023-02-14T14:37:57.071Z,8.49
2023-02-14T14:40:27.312Z,8.47
2023-02-14T14:42:57.960Z,8.44
2023-02-14T14:45:28.835Z,8.43
2023-02-14T14:47:59.081Z,8.43
2023-02-14T14:50:32.586Z,8.45
2023-02-14T14:53:06.124Z,8.48
2023-02-14T14:55:37.047Z,8.51
2023-02-14T14:58:09.195Z,8.52
2023-02-14T15:00:38.424Z,8.54
2023-02-14T15:03:10.341Z,8.53
2023-02-14T15:05:40.267Z,8.51
2023-02-14T15:08:23.277Z,8.49
2023-02-14T15:11:10.606Z,8.46
2023-02-14T15:13:49.632Z,8.45
2023-02-14T15:16:23.663Z,8.46
2023-02-14T15:18:55.302Z,8.50
2023-02-14T15:21:23.570Z,8.50
2023-02-14T15:23:53.074Z,8.49
2023-02-14T15:26:28.721Z,8.47
2023-02-14T15:29:06.203Z,8.46
2023-02-14T15:31:37.560Z,8.45
2023-02-14T15:34:06.255Z,8.48
2023-02-14T15:36:36.575Z,8.52
2023-02-14T15:39:06.914Z,8.59
2023-02-14T15:41:36.305Z,8.62
2023-02-14T15:44:05.123Z,8.58
2023-02-14T15:46:38.167Z,8.49
2023-02-14T15:49:09.566Z,8.42
2023-02-14T15:51:38.185Z,8.35
2023-02-14T15:54:23.381Z,8.27
2023-02-14T15:56:53.087Z,8.19
2023-02-14T15:59:24.234Z,8.10
2023-02-14T16:01:55.301Z,8.04
2023-02-14T16:04:25.493Z,7.96
2023-02-14T16:07:26.339Z,7.88
2023-02-14T16:10:14.776Z,7.77
2023-02-14T16:12:43.560Z,7.68
2023-02-14T16:15:18.798Z,7.64
2023-02-14T16:17:47.682Z,7.64
2023-02-14T16:20:36.041Z,7.67
2023-02-14T16:23:28.511Z,7.71
2023-02-14T16:25:57.873Z,7.73
2023-02-14T16:28:30.652Z,7.74
2023-02-14T16:31:00.679Z,7.70
2023-02-14T16:33:31.405Z,7.66
2023-02-14T16:36:14.937Z,7.63
2023-02-14T16:38:44.634Z,7.63
2023-02-14T16:41:24.621Z,7.62
2023-02-14T16:43:54.327Z,7.61
2023-02-14T16:46:29.283Z,7.60
2023-02-14T16:49:00.400Z,7.58
2023-02-14T16:51:31.584Z,7.56
2023-02-14T16:54:03.748Z,7.57
2023-02-14T16:56:38.314Z,7.57
2023-02-14T16:59:07.204Z,7.58
2023-02-14T17:01:35.649Z,7.54
2023-02-14T17:04:05.092Z,7.49
2023-02-14T17:06:34.199Z,7.45
2023-02-14T17:09:07.682Z,7.41
2023-02-14T17:11:38.822Z,7.38
2023-02-14T17:14:07.410Z,7.35
2023-02-14T17:16:36.092Z,7.29
2023-02-14T17:19:04.471Z,7.26
2023-02-14T17:21:35.823Z,7.25
2023-02-14T17:24:04.441Z,7.25
2023-02-14T17:26:34.225Z,7.25
2023-02-14T17:29:02.795Z,7.27
2023-02-14T17:31:32.601Z,7.31
2023-02-14T17:34:01.188Z,7.37
2023-02-14T17:36:32.741Z,7.44
2023-02-14T17:39:03.702Z,7.47
2023-02-14T17:41:32.266Z,7.46
2023-02-14T17:44:00.739Z,7.44
2023-02-14T17:46:30.393Z,7.43
2023-02-14T17:48:59.038Z,7.40
2023-02-14T17:51:27.514Z,7.38
2023-02-14T17:53:58.566Z,7.37
2023-02-14T17:56:27.453Z,7.37
2023-02-14T17:58:56.438Z,7.36
2023-02-14T18:01:31.700Z,7.36
2023-02-14T18:04:00.466Z,7.38
2023-02-14T18:06:29.772Z,7.39
2023-02-14T18:08:58.253Z,7.37
2023-02-14T18:11:27.755Z,7.35
2023-02-14T18:13:56.616Z,7.34
2023-02-14T18:16:25.583Z,7.34
2023-02-14T18:18:55.164Z,7.36
2023-02-14T18:21:24.848Z,7.38
2023-02-14T18:23:54.147Z,7.36
2023-02-14T18:26:42.938Z,7.34
2023-02-14T18:29:13.019Z,7.34
2023-02-14T18:31:42.689Z,7.34
2023-02-14T18:34:11.309Z,7.33
2023-02-14T18:36:42.144Z,7.33
2023-02-14T18:39:10.837Z,7.32
2023-02-14T18:41:39.207Z,7.36
2023-02-14T18:44:07.812Z,7.40
2023-02-14T18:46:38.832Z,7.45
2023-02-14T18:49:08.643Z,7.50
2023-02-14T18:51:39.587Z,7.54
2023-02-14T18:54:08.057Z,7.58
2023-02-14T18:56:37.524Z,7.61
2023-02-14T18:59:07.843Z,7.63
2023-02-14T19:01:38.413Z,7.66
2023-02-14T19:04:09.074Z,7.69
2023-02-14T19:06:40.919Z,7.71
2023-02-14T19:09:14.222Z,7.73
2023-02-14T19:11:42.786Z,7.75
2023-02-14T19:14:12.958Z,7.77
2023-02-14T19:16:44.115Z,7.78
2023-02-14T19:19:13.042Z,7.80
2023-02-14T19:21:41.525Z,7.81
2023-02-14T19:24:17.928Z,7.81
2023-02-14T19:26:48.247Z,7.81
2023-02-14T19:29:18.137Z,7.82
2023-02-14T19:31:54.917Z,7.84
2023-02-14T19:34:27.857Z,7.85
2023-02-14T19:36:59.848Z,7.86
2023-02-14T19:39:32.327Z,7.85
2023-02-14T19:42:05.516Z,7.86
2023-02-14T19:44:33.804Z,7.88
2023-02-14T19:47:09.793Z,7.88
2023-02-14T19:49:44.266Z,7.88
2023-02-14T19:52:25.783Z,7.86
2023-02-14T19:54:56.179Z,7.86
2023-02-14T19:57:25.183Z,7.86
2023-02-14T19:59:58.163Z,7.85
2023-02-14T20:02:26.615Z,7.84
2023-02-14T20:04:59.240Z,7.83
2023-02-14T20:07:27.489Z,7.83
2023-02-14T20:09:55.880Z,7.84
2023-02-14T20:12:24.247Z,7.84
2023-02-14T20:14:54.468Z,7.84
2023-02-14T20:17:22.843Z,7.85
2023-02-14T20:19:53.066Z,7.85
2023-02-14T20:22:25.861Z,7.86
2023-02-14T20:24:54.325Z,7.85
2023-02-14T20:27:25.769Z,7.85
2023-02-14T20:29:55.643Z,7.84
2023-02-14T20:32:24.065Z,7.85
2023-02-14T20:34:53.046Z,7.86
2023-02-14T20:37:21.336Z,7.88
2023-02-14T20:39:50.028Z,7.88
2023-02-14T20:42:18.503Z,7.87
2023-02-14T20:44:47.085Z,7.84
2023-02-14T20:47:15.664Z,7.82
2023-02-14T20:49:45.179Z,7.81
2023-02-14T20:52:13.577Z,7.81
2023-02-14T20:54:42.050Z,7.81
2023-02-14T20:57:10.403Z,7.81
2023-02-14T20:59:39.604Z,7.79
2023-02-14T21:02:09.554Z,7.78
2023-02-14T21:04:38.201Z,7.77
2023-02-14T21:07:09.343Z,7.77
2023-02-14T21:09:39.768Z,7.76
2023-02-14T21:12:09.173Z,7.76
2023-02-14T21:14:37.651Z,7.75
2023-02-14T21:17:06.541Z,7.74
2023-02-14T21:19:35.433Z,7.73
2023-02-14T21:22:06.473Z,7.72
2023-02-14T21:24:34.955Z,7.72
2023-02-14T21:27:03.435Z,7.71
2023-02-14T21:29:33.762Z,7.70
2023-02-14T21:32:03.767Z,7.71
2023-02-14T21:34:33.815Z,7.71
2023-02-14T21:37:02.280Z,7.67
2023-02-14T21:39:31.406Z,7.64
2023-02-14T21:42:01.292Z,7.60
2023-02-14T21:44:48.608Z,7.51
2023-02-14T21:47:17.088Z,7.44
2023-02-14T21:50:04.408Z,7.37
2023-02-14T21:52:34.425Z,7.26
2023-02-14T21:55:03.107Z,7.18
2023-02-14T21:57:31.801Z,7.13
2023-02-14T22:00:00.583Z,7.08
2023-02-14T22:02:29.500Z,7.03
2023-02-14T22:04:58.156Z,6.98
2023-02-14T22:07:30.024Z,6.91
2023-02-14T22:09:58.803Z,6.81
2023-02-14T22:12:28.820Z,6.73
2023-02-14T22:15:00.582Z,6.70
2023-02-14T22:17:29.522Z,6.69
2023-02-14T22:19:58.051Z,6.64
2023-02-14T22:22:27.143Z,6.55
2023-02-14T22:24:55.522Z,6.48
2023-02-14T22:27:24.004Z,6.41
2023-02-14T22:29:52.502Z,6.36
2023-02-14T22:32:21.062Z,6.31
2023-02-14T22:34:49.646Z,6.29
2023-02-14T22:37:18.129Z,6.26
2023-02-14T22:39:46.612Z,6.24
2023-02-14T22:42:14.983Z,6.23
2023-02-14T22:44:43.365Z,6.26
2023-02-14T22:47:11.843Z,6.29
2023-02-14T22:49:40.751Z,6.30
2023-02-14T22:52:09.211Z,6.27
2023-02-14T22:54:38.108Z,6.22
2023-02-14T22:57:07.112Z,6.19
2023-02-14T22:59:35.587Z,6.15
2023-02-14T23:02:04.027Z,6.09
2023-02-14T23:04:33.151Z,6.04
2023-02-14T23:07:02.075Z,6.03
2023-02-14T23:09:30.731Z,6.04
2023-02-14T23:11:59.103Z,6.06
2023-02-14T23:14:46.327Z,6.08
2023-02-14T23:17:18.920Z,6.10
2023-02-14T23:20:06.477Z,6.11
2023-02-14T23:22:39.311Z,6.11
2023-02-14T23:25:09.636Z,6.11
2023-02-14T23:27:44.289Z,6.10
2023-02-14T23:30:16.400Z,6.10
2023-02-14T23:32:44.801Z,6.09
2023-02-14T23:35:13.204Z,6.09
2023-02-14T23:37:42.315Z,6.07
2023-02-14T23:40:12.496Z,6.06
2023-02-14T23:42:41.387Z,6.04
2023-02-14T23:45:29.297Z,6.02
2023-02-14T23:48:05.408Z,6.01
2023-02-14T23:50:34.974Z,5.99
2023-02-14T23:53:03.369Z,5.97
2023-02-14T23:55:32.461Z,5.96
2023-02-14T23:58:01.861Z,5.95
